createdAt,value
2023-05-21T00:03:26.718Z,7
2023-05-21T00:18:36.953Z,6.5
2023-05-21T00:33:46.583Z,6.7
2023-05-21T00:48:56.587Z,7.4
2023-05-21T01:04:06.205Z,6.8
2023-05-21T01:19:16.726Z,6.5
2023-05-21T01:34:26.671Z,6.7
2023-05-21T01:49:36.764Z,6.2
2023-05-21T02:04:45.738Z,6.6
2023-05-21T02:19:55.639Z,6.3
2023-05-21T02:35:05.443Z,5.7
2023-05-21T02:50:14.831Z,6.4
2023-05-21T03:05:24.754Z,5.8
2023-05-21T03:20:34.094Z,6.3
2023-05-21T03:35:43.591Z,6.3
2023-05-21T03:50:53.213Z,5.8
2023-05-21T04:06:02.952Z,5.8
2023-05-21T04:21:12.701Z,5.9
2023-05-21T04:36:22.565Z,5.5
2023-05-21T04:51:32.053Z,6.7
2023-05-21T05:06:42.989Z,5.8
2023-05-21T05:21:52.921Z,6.1
2023-05-21T05:37:02.539Z,6.9
2023-05-21T05:52:12.009Z,6.9
2023-05-21T06:07:22.409Z,7.3
2023-05-21T06:22:32.265Z,8.8
2023-05-21T06:37:42.284Z,9.3
2023-05-21T06:52:51.825Z,10.2
2023-05-21T07:08:03.548Z,10.7
2023-05-21T07:23:13.943Z,14.2
2023-05-21T07:38:24.377Z,13.8
2023-05-21T07:53:34.744Z,14.2
2023-05-21T08:08:44.887Z,17.2
2023-05-21T08:23:54.806Z,17.2
2023-05-21T08:39:05.074Z,17.9
2023-05-21T08:54:14.778Z,17.6
2023-05-21T09:09:25.175Z,18.4
2023-05-21T09:24:36.798Z,19.6
2023-05-21T09:39:46.939Z,18.4
2023-05-21T09:54:56.676Z,17.1
2023-05-21T10:10:05.719Z,19.2
2023-05-21T10:25:15.788Z,16.9
2023-05-21T10:40:25.854Z,17.5
2023-05-21T10:55:36.068Z,17.8
2023-05-21T11:10:46.500Z,16.2
2023-05-21T11:25:56.573Z,14.6
2023-05-21T11:41:05.988Z,14.8
2023-05-21T11:56:15.734Z,14.4
2023-05-21T12:11:26.106Z,13.7
2023-05-21T12:26:36.910Z,14
2023-05-21T12:41:47.169Z,12.2
2023-05-21T12:56:57.451Z,14.8
2023-05-21T13:12:07.808Z,13.1
2023-05-21T13:27:17.515Z,12.8
2023-05-21T13:42:27.531Z,12.4
2023-05-21T13:57:38.407Z,12.3
2023-05-21T14:12:48.028Z,14
2023-05-21T14:27:57.821Z,13.1
2023-05-21T14:43:07.467Z,13.7
2023-05-21T14:58:16.438Z,13.6
2023-05-21T15:13:25.695Z,14.9
2023-05-21T15:28:35.111Z,14.9
2023-05-21T15:43:45.498Z,16.3
2023-05-21T15:58:55.353Z,15.8
2023-05-21T16:14:05.195Z,14.8
2023-05-21T16:29:14.241Z,14
2023-05-21T16:44:23.448Z,13.5
2023-05-21T16:59:32.779Z,16.2
2023-05-21T17:14:43.330Z,13.8
2023-05-21T17:29:53.185Z,13.5
2023-05-21T17:45:02.689Z,13.3
2023-05-21T18:00:13.058Z,12.7
2023-05-21T18:15:22.677Z,12.9
2023-05-21T18:30:32.336Z,12.2
2023-05-21T18:45:43.680Z,11.9
2023-05-21T19:00:53.087Z,12.4
2023-05-21T19:16:02.736Z,12.2
2023-05-21T19:31:12.946Z,12.8
2023-05-21T19:46:22.474Z,10.8
2023-05-21T20:01:32.131Z,10.7
2023-05-21T20:16:43.997Z,9.6
2023-05-21T20:31:54.234Z,10.1
2023-05-21T20:47:04.064Z,9.8
2023-05-21T21:02:13.793Z,9.7
2023-05-21T21:17:23.512Z,9.1
2023-05-21T21:32:33.562Z,9.1
2023-05-21T21:47:43.415Z,9.5
2023-05-21T22:02:53.840Z,9.8
2023-05-21T22:18:05.006Z,9.1
2023-05-21T22:33:15.236Z,9.1
2023-05-21T22:48:25.361Z,9.5
2023-05-21T23:03:36.387Z,10.5
2023-05-21T23:18:46.302Z,9.5
2023-05-21T23:33:55.572Z,10.4
2023-05-21T23:49:05.417Z,9.3
